Time;durP1;ratioP1;P1;durP2;ratioP2;P2;SDS_P1;SDS_P2;PMS_P1;PMS_P2;Temp;Humidity;BMP_temperature;BMP_pressure;BME280_temperature;BME280_humidity;BME280_pressure;Samples;Min_cycle;Max_cycle;Signal;HPM_P1;HPM_P2
2022/07/25 00:01:54;;;;;;;14.70;13.50;;;23.70;88.50;;;;;;5040731;28;20743;-55
2022/07/25 00:04:20;;;;;;;16.20;14.80;;;23.60;88.40;;;;;;5041425;28;20564;-52
2022/07/25 00:06:46;;;;;;;15.07;13.87;;;23.60;88.60;;;;;;5041229;28;20475;-53
2022/07/25 00:09:11;;;;;;;15.87;14.47;;;23.60;88.70;;;;;;5041298;28;20186;-52
2022/07/25 00:11:37;;;;;;;14.63;13.53;;;23.60;88.80;;;;;;5040220;28;20429;-55
2022/07/25 00:14:03;;;;;;;14.53;13.43;;;23.60;89.00;;;;;;5040467;28;20193;-53
2022/07/25 00:16:28;;;;;;;15.63;14.43;;;23.60;89.00;;;;;;5040918;28;20588;-51
2022/07/25 00:18:54;;;;;;;15.77;14.47;;;23.50;89.00;;;;;;5041112;28;20175;-55
2022/07/25 00:21:20;;;;;;;15.50;14.20;;;23.50;89.30;;;;;;5040972;28;20200;-51
2022/07/25 00:23:45;;;;;;;14.27;13.13;;;23.50;89.30;;;;;;5041223;28;20193;-54
2022/07/25 00:26:11;;;;;;;15.30;14.10;;;23.40;89.30;;;;;;5040678;28;20224;-54
2022/07/25 00:28:37;;;;;;;15.07;13.70;;;23.40;89.30;;;;;;5040853;28;20182;-52
2022/07/25 00:31:02;;;;;;;15.03;13.93;;;23.40;90.00;;;;;;5040450;28;20354;-53
2022/07/25 00:33:28;;;;;;;14.73;13.70;;;23.30;90.20;;;;;;5040651;28;20217;-52
2022/07/25 00:35:54;;;;;;;15.13;13.90;;;23.30;90.30;;;;;;5039720;28;20189;-51
2022/07/25 00:38:19;;;;;;;15.53;14.23;;;23.30;90.30;;;;;;5041140;28;20452;-51
2022/07/25 00:40:45;;;;;;;14.70;13.40;;;23.30;90.20;;;;;;5039397;28;20200;-50
2022/07/25 00:43:10;;;;;;;15.33;14.13;;;23.30;90.10;;;;;;5040951;28;20213;-50
2022/07/25 00:45:36;;;;;;;15.03;13.63;;;23.30;89.60;;;;;;5040860;28;20230;-51
2022/07/25 00:48:02;;;;;;;14.57;13.37;;;23.30;90.10;;;;;;5039551;28;20181;-52
2022/07/25 00:50:28;;;;;;;14.23;13.13;;;23.30;90.20;;;;;;5040287;28;20178;-52
2022/07/25 00:52:54;;;;;;;14.67;13.47;;;23.30;90.20;;;;;;5039355;28;20500;-53
2022/07/25 00:55:20;;;;;;;15.10;13.90;;;23.30;90.30;;;;;;5039451;28;20428;-50
2022/07/25 00:57:46;;;;;;;15.57;14.37;;;23.20;90.30;;;;;;5039410;28;20429;-51
2022/07/25 01:00:13;;;;;;;16.20;14.80;;;23.20;90.70;;;;;;5040259;28;20706;-51
2022/07/25 01:02:40;;;;;;;15.93;14.73;;;23.20;90.30;;;;;;5040249;28;20194;-54
2022/07/25 01:05:06;;;;;;;15.80;14.60;;;23.30;90.30;;;;;;5039607;28;20427;-54
2022/07/25 01:07:32;;;;;;;14.50;13.40;;;23.20;90.40;;;;;;5040078;28;20498;-49
2022/07/25 01:13:39;;;;;;;14.57;13.27;;;23.20;90.50;;;;;;5007516;28;20210;-50
2022/07/25 01:16:05;;;;;;;14.60;13.50;;;23.10;90.50;;;;;;5031371;28;20447;-52
2022/07/25 01:18:30;;;;;;;14.80;13.60;;;23.10;90.50;;;;;;5021214;28;20187;-54
2022/07/25 01:20:56;;;;;;;14.17;13.10;;;23.10;90.60;;;;;;5031728;28;20449;-51
2022/07/25 01:23:22;;;;;;;14.60;13.40;;;23.10;90.70;;;;;;5020173;28;20231;-54
2022/07/25 01:25:47;;;;;;;16.20;14.90;;;23.10;90.70;;;;;;5019816;28;20287;-52
2022/07/25 01:28:13;;;;;;;13.30;12.30;;;23.10;90.60;;;;;;5020210;28;20276;-50
2022/07/25 01:30:39;;;;;;;15.07;13.97;;;23.00;90.60;;;;;;5018787;28;20708;-50
2022/07/25 01:33:04;;;;;;;14.67;13.57;;;23.10;90.60;;;;;;5018665;28;20234;-53
2022/07/25 01:35:30;;;;;;;14.10;13.00;;;23.00;90.60;;;;;;5017949;28;20573;-51
2022/07/25 01:37:55;;;;;;;13.70;12.57;;;23.00;90.50;;;;;;5018338;28;20189;-52
2022/07/25 01:40:21;;;;;;;14.27;13.07;;;23.00;90.50;;;;;;5018528;28;20193;-53
2022/07/25 01:42:47;;;;;;;14.43;13.33;;;23.00;90.50;;;;;;5017283;28;20175;-52
2022/07/25 01:45:13;;;;;;;15.37;14.17;;;23.00;90.50;;;;;;5017043;28;20187;-50
2022/07/25 01:47:39;;;;;;;14.03;13.00;;;23.00;90.60;;;;;;5018164;28;20206;-53
2022/07/25 01:50:05;;;;;;;14.53;13.33;;;23.00;90.70;;;;;;5018439;28;20436;-51
2022/07/25 01:52:31;;;;;;;15.17;13.97;;;23.00;90.60;;;;;;5018479;28;20426;-50
2022/07/25 01:54:57;;;;;;;15.00;13.80;;;23.00;90.70;;;;;;5017497;28;20861;-50
2022/07/25 01:57:23;;;;;;;13.53;12.47;;;22.90;90.60;;;;;;5018549;28;20216;-51
2022/07/25 01:59:48;;;;;;;14.73;13.53;;;23.00;90.80;;;;;;5028598;28;20279;-50
2022/07/25 02:02:14;;;;;;;14.00;13.00;;;23.00;90.90;;;;;;5019735;28;20193;-55
2022/07/25 02:04:39;;;;;;;14.00;12.90;;;23.00;90.70;;;;;;5020135;28;20484;-51
2022/07/25 02:07:05;;;;;;;15.50;14.30;;;22.90;90.70;;;;;;5019193;28;20220;-53
2022/07/25 02:09:31;;;;;;;14.73;13.57;;;22.90;90.70;;;;;;5018660;28;20199;-49
2022/07/25 02:11:56;;;;;;;13.73;12.63;;;22.90;90.80;;;;;;5019371;28;20176;-50
2022/07/25 02:14:22;;;;;;;14.73;13.53;;;22.90;90.90;;;;;;5020192;28;20437;-52
2022/07/25 02:16:48;;;;;;;14.00;12.90;;;22.90;90.90;;;;;;5025744;28;20189;-54
2022/07/25 02:19:14;;;;;;;13.93;12.93;;;22.90;90.90;;;;;;5038864;28;20268;-52
2022/07/25 02:21:40;;;;;;;13.03;12.03;;;22.90;91.00;;;;;;5039041;28;20498;-54
2022/07/25 02:24:06;;;;;;;14.80;13.60;;;22.80;91.10;;;;;;5038576;28;20784;-50
2022/07/25 02:26:32;;;;;;;14.13;12.83;;;22.80;91.30;;;;;;5038512;28;20232;-53
2022/07/25 02:28:57;;;;;;;14.60;13.57;;;22.70;91.30;;;;;;5037388;28;20429;-54
2022/07/25 02:31:23;;;;;;;14.00;12.90;;;22.70;91.40;;;;;;5038216;28;20537;-50
2022/07/25 02:33:49;;;;;;;13.80;12.70;;;22.70;91.50;;;;;;5038634;28;20456;-50
2022/07/25 02:36:14;;;;;;;14.13;13.03;;;22.60;91.50;;;;;;5038780;28;20201;-53
2022/07/25 02:38:40;;;;;;;15.23;14.03;;;22.70;91.50;;;;;;5038857;28;20265;-49
2022/07/25 02:41:06;;;;;;;14.30;13.20;;;22.70;91.50;;;;;;5038007;28;20235;-52
2022/07/25 02:43:32;;;;;;;13.87;12.70;;;22.60;91.20;;;;;;5038519;28;20482;-50
2022/07/25 02:45:57;;;;;;;13.43;12.40;;;22.60;91.40;;;;;;5038324;28;20489;-49
2022/07/25 02:48:23;;;;;;;14.13;13.00;;;22.60;91.40;;;;;;5038244;28;20298;-53
2022/07/25 02:50:48;;;;;;;14.00;12.97;;;22.60;91.30;;;;;;5037446;28;20192;-54
2022/07/25 02:53:14;;;;;;;13.57;12.47;;;22.60;91.50;;;;;;5037892;28;20176;-54
2022/07/25 02:55:40;;;;;;;14.30;13.10;;;22.60;91.30;;;;;;5037626;28;20184;-55
2022/07/25 02:58:05;;;;;;;14.73;13.63;;;22.60;91.30;;;;;;5038589;28;20335;-52
2022/07/25 03:00:31;;;;;;;13.57;12.57;;;22.60;91.40;;;;;;5038529;28;20233;-50
2022/07/25 03:02:57;;;;;;;14.27;13.07;;;22.60;91.20;;;;;;5037914;28;20182;-52
2022/07/25 03:05:23;;;;;;;13.90;12.70;;;22.50;91.10;;;;;;5037815;28;20483;-49
2022/07/25 03:07:48;;;;;;;14.73;13.50;;;22.60;90.80;;;;;;5037651;28;20481;-52
2022/07/25 03:10:14;;;;;;;14.90;13.57;;;22.60;91.10;;;;;;5036942;28;20231;-49
2022/07/25 03:12:40;;;;;;;14.40;13.10;;;22.50;90.90;;;;;;5036160;28;20180;-51
2022/07/25 03:15:07;;;;;;;14.53;13.40;;;22.40;91.00;;;;;;5036180;28;20184;-54
2022/07/25 03:17:33;;;;;;;13.97;12.80;;;22.40;91.20;;;;;;5031643;28;20807;-51
2022/07/25 03:19:58;;;;;;;14.50;13.30;;;22.40;91.40;;;;;;5034535;28;20527;-52
2022/07/25 03:22:24;;;;;;;13.73;12.63;;;22.40;91.30;;;;;;5016199;28;20576;-53
2022/07/25 03:24:50;;;;;;;13.87;12.60;;;22.40;91.20;;;;;;5020621;28;20184;-54
2022/07/25 03:27:16;;;;;;;13.77;12.67;;;22.40;91.20;;;;;;5035600;28;20249;-51
2022/07/25 03:29:42;;;;;;;13.17;12.17;;;22.40;90.90;;;;;;5035731;28;20847;-50
2022/07/25 03:32:07;;;;;;;14.10;12.90;;;22.40;91.10;;;;;;5034832;28;20232;-49
2022/07/25 03:34:34;;;;;;;13.47;12.37;;;22.50;90.90;;;;;;5035536;28;20444;-52
2022/07/25 03:36:59;;;;;;;14.10;13.00;;;22.40;91.00;;;;;;5035841;28;20258;-52
2022/07/25 03:39:26;;;;;;;13.93;12.83;;;22.40;90.90;;;;;;5036227;28;20441;-52
2022/07/25 03:41:52;;;;;;;14.20;13.10;;;22.40;91.00;;;;;;5036346;28;20275;-51
2022/07/25 03:44:21;;;;;;;13.83;12.80;;;22.40;91.30;;;;;;5034509;28;20560;-50
2022/07/25 03:46:47;;;;;;;14.20;13.00;;;22.40;91.10;;;;;;5035802;28;20562;-52
2022/07/25 03:49:12;;;;;;;14.87;13.63;;;22.40;91.10;;;;;;5035224;28;20557;-53
2022/07/25 03:51:38;;;;;;;14.90;13.73;;;22.40;91.00;;;;;;5035713;28;20196;-53
2022/07/25 03:54:05;;;;;;;12.90;11.90;;;22.40;90.80;;;;;;5035773;28;20185;-50
2022/07/25 03:56:51;;;;;;;15.00;13.77;;;22.40;91.00;;;;;;5028350;28;20179;-52
2022/07/25 03:59:20;;;;;;;15.47;14.27;;;22.40;91.10;;;;;;5033320;28;20452;-53
2022/07/25 04:01:47;;;;;;;16.00;14.70;;;22.50;91.00;;;;;;5024447;28;20466;-51
2022/07/25 04:04:13;;;;;;;16.00;14.50;;;22.40;90.90;;;;;;5034094;28;20494;-53
2022/07/25 04:06:40;;;;;;;14.67;13.37;;;22.40;91.10;;;;;;5013608;28;20510;-54
2022/07/25 04:09:08;;;;;;;15.77;14.43;;;22.30;91.30;;;;;;5028929;28;20187;-53
2022/07/25 04:11:34;;;;;;;14.87;13.57;;;22.30;91.30;;;;;;5022506;28;20439;-54
2022/07/25 04:14:01;;;;;;;14.93;13.70;;;22.40;91.30;;;;;;5033891;28;20419;-54
2022/07/25 04:16:27;;;;;;;15.27;14.03;;;22.40;91.20;;;;;;5018919;28;20447;-50
2022/07/25 04:18:53;;;;;;;14.87;13.57;;;22.40;91.30;;;;;;5036188;28;20438;-51
2022/07/25 04:21:19;;;;;;;13.87;12.77;;;22.40;91.30;;;;;;5011482;28;20444;-49
2022/07/25 04:23:44;;;;;;;14.30;13.30;;;22.40;91.30;;;;;;5015098;28;20182;-55
2022/07/25 04:26:10;;;;;;;14.90;13.80;;;22.50;91.30;;;;;;5013614;28;20251;-52
2022/07/25 04:28:35;;;;;;;15.77;14.57;;;22.50;91.30;;;;;;5015071;28;20385;-53
2022/07/25 04:31:01;;;;;;;14.80;13.47;;;22.50;91.20;;;;;;5016163;28;21400;-53
2022/07/25 04:33:27;;;;;;;16.03;14.73;;;22.50;91.30;;;;;;5017499;28;20245;-54
2022/07/25 04:35:53;;;;;;;15.13;13.87;;;22.60;91.30;;;;;;5017871;28;20586;-53
2022/07/25 04:38:18;;;;;;;15.80;14.60;;;22.70;91.10;;;;;;5016763;28;20455;-53
2022/07/25 04:40:44;;;;;;;15.60;14.30;;;22.80;91.00;;;;;;5016113;28;20495;-55
2022/07/25 04:43:10;;;;;;;16.03;14.73;;;22.80;90.90;;;;;;5015941;28;20183;-54
2022/07/25 04:45:35;;;;;;;16.93;15.50;;;22.80;90.90;;;;;;5015638;28;20247;-57
2022/07/25 04:48:02;;;;;;;16.53;15.00;;;22.90;90.80;;;;;;5015721;28;20223;-52
2022/07/25 04:50:28;;;;;;;16.57;15.27;;;22.90;90.70;;;;;;5015351;28;20410;-55
2022/07/25 04:52:54;;;;;;;16.70;15.40;;;23.00;90.60;;;;;;5016428;28;20434;-55
2022/07/25 04:55:19;;;;;;;15.83;14.50;;;23.00;90.60;;;;;;5016957;28;20200;-53
2022/07/25 04:57:46;;;;;;;17.07;15.57;;;23.10;90.50;;;;;;5015765;28;20180;-55
2022/07/25 05:00:12;;;;;;;16.50;15.00;;;23.10;90.40;;;;;;5015058;28;20214;-56
2022/07/25 05:02:37;;;;;;;15.73;14.43;;;23.20;90.30;;;;;;5017233;28;20465;-57
2022/07/25 05:05:04;;;;;;;15.30;14.10;;;23.30;90.30;;;;;;5016654;28;21018;-57
2022/07/25 05:07:29;;;;;;;16.00;14.80;;;23.30;90.20;;;;;;5015661;28;20222;-55
2022/07/25 05:09:55;;;;;;;15.87;14.67;;;23.40;90.10;;;;;;5015509;28;20696;-57
2022/07/25 05:12:20;;;;;;;15.53;14.33;;;23.40;90.00;;;;;;5004909;28;20199;-53
2022/07/25 05:14:46;;;;;;;15.97;14.77;;;23.40;90.00;;;;;;4995144;28;20727;-57
2022/07/25 05:17:12;;;;;;;15.70;14.50;;;23.50;89.90;;;;;;4995114;28;20202;-55
2022/07/25 05:19:37;;;;;;;15.87;14.67;;;23.50;89.70;;;;;;4994075;28;20279;-54
2022/07/25 05:22:03;;;;;;;16.67;15.17;;;23.60;89.70;;;;;;4996685;28;20271;-55
2022/07/25 05:24:33;;;;;;;17.13;15.70;;;23.60;89.30;;;;;;4997715;28;20183;-55
2022/07/25 05:26:59;;;;;;;16.37;14.80;;;23.70;89.10;;;;;;4996459;28;20609;-55
2022/07/25 05:29:26;;;;;;;16.37;14.87;;;23.70;88.70;;;;;;5011303;28;20776;-55
2022/07/25 05:31:51;;;;;;;15.40;14.13;;;23.80;88.10;;;;;;4995486;28;20469;-57
2022/07/25 05:34:17;;;;;;;16.47;14.97;;;23.80;88.10;;;;;;4992687;28;20728;-56
2022/07/25 05:36:44;;;;;;;14.70;13.60;;;23.80;87.90;;;;;;5013366;28;20430;-56
2022/07/25 05:39:10;;;;;;;16.23;14.97;;;23.80;87.80;;;;;;5012826;28;20261;-57
2022/07/25 05:41:35;;;;;;;16.63;15.43;;;23.90;87.70;;;;;;5015541;28;20454;-57
2022/07/25 05:44:01;;;;;;;16.63;15.23;;;23.90;86.90;;;;;;5011954;28;20207;-56
2022/07/25 05:46:27;;;;;;;16.70;15.40;;;24.00;86.80;;;;;;5010630;28;20214;-56
2022/07/25 05:48:52;;;;;;;15.47;14.17;;;24.00;86.80;;;;;;5010269;28;20227;-58
2022/07/25 05:51:18;;;;;;;15.63;14.33;;;24.10;86.50;;;;;;5012233;28;20282;-52
2022/07/25 05:53:44;;;;;;;16.20;14.90;;;23.80;86.10;;;;;;5011644;28;20330;-57
2022/07/25 05:56:09;;;;;;;15.40;14.10;;;23.90;87.00;;;;;;5010219;28;20574;-54
2022/07/25 05:58:39;;;;;;;15.17;13.87;;;24.00;86.40;;;;;;5005747;28;20379;-55
2022/07/25 06:01:05;;;;;;;14.60;13.50;;;24.20;85.80;;;;;;5007968;28;20180;-53
2022/07/25 06:03:32;;;;;;;15.17;14.00;;;24.20;85.80;;;;;;5007523;28;20846;-56
2022/07/25 06:05:59;;;;;;;15.07;13.90;;;24.30;84.30;;;;;;5007325;28;20427;-56
2022/07/25 06:08:27;;;;;;;13.87;12.77;;;24.30;86.20;;;;;;5008559;28;20416;-55
2022/07/25 06:10:53;;;;;;;14.87;13.77;;;24.50;85.10;;;;;;5009598;28;20469;-57
2022/07/25 06:13:19;;;;;;;13.73;12.73;;;24.50;83.80;;;;;;5011432;28;20771;-55
2022/07/25 06:15:44;;;;;;;15.53;14.23;;;24.60;83.80;;;;;;5013745;28;20473;-55
2022/07/25 06:18:10;;;;;;;14.93;13.60;;;24.80;83.50;;;;;;5014972;28;20180;-57
2022/07/25 06:20:36;;;;;;;15.43;14.33;;;24.90;83.20;;;;;;5015548;28;20190;-56
2022/07/25 06:23:03;;;;;;;15.27;14.03;;;25.00;82.70;;;;;;5030631;28;20181;-59
2022/07/25 06:25:29;;;;;;;15.07;13.90;;;25.20;82.30;;;;;;5014506;28;20489;-53
2022/07/25 06:27:55;;;;;;;14.73;13.53;;;25.20;81.40;;;;;;5014961;28;20454;-56
2022/07/25 06:30:20;;;;;;;14.70;13.50;;;25.20;81.00;;;;;;5014931;28;20183;-56
2022/07/25 06:32:47;;;;;;;14.00;12.90;;;25.30;80.80;;;;;;5016116;28;20321;-53
2022/07/25 06:35:13;;;;;;;14.83;13.60;;;25.40;80.80;;;;;;5015904;28;20218;-57
2022/07/25 06:37:39;;;;;;;14.50;13.33;;;25.60;80.60;;;;;;5015416;28;20859;-54
2022/07/25 06:40:05;;;;;;;15.70;14.50;;;25.60;80.30;;;;;;5015421;28;20187;-57
2022/07/25 06:42:32;;;;;;;14.80;13.70;;;25.70;79.60;;;;;;5014438;28;20226;-56
2022/07/25 06:44:57;;;;;;;15.37;13.97;;;25.60;79.70;;;;;;5013764;28;20446;-58
2022/07/25 06:47:23;;;;;;;14.80;13.70;;;25.70;80.00;;;;;;5012641;28;20752;-55
2022/07/25 06:49:49;;;;;;;14.27;13.07;;;25.70;80.40;;;;;;5012227;28;20243;-57
2022/07/25 06:52:14;;;;;;;14.20;13.10;;;25.60;80.30;;;;;;5013464;28;20179;-56
2022/07/25 06:54:40;;;;;;;15.00;13.90;;;25.80;79.40;;;;;;5013940;28;20205;-57
2022/07/25 06:57:07;;;;;;;16.37;14.90;;;26.00;79.00;;;;;;5014915;28;20187;-57
2022/07/25 06:59:33;;;;;;;16.10;14.77;;;26.10;78.70;;;;;;5015314;28;20226;-56
2022/07/25 07:01:59;;;;;;;15.33;13.93;;;26.10;78.10;;;;;;5016359;28;20434;-55
2022/07/25 07:04:24;;;;;;;14.87;13.67;;;26.20;77.40;;;;;;5016242;28;20211;-58
2022/07/25 07:06:50;;;;;;;14.73;13.50;;;26.30;77.80;;;;;;5007685;28;20207;-57
2022/07/25 07:09:15;;;;;;;15.90;14.70;;;26.40;77.70;;;;;;4995596;28;20446;-55
2022/07/25 07:11:41;;;;;;;15.70;14.40;;;26.50;78.10;;;;;;4996002;28;20188;-55
2022/07/25 07:14:06;;;;;;;16.00;14.70;;;26.70;77.60;;;;;;4996075;28;20176;-53
2022/07/25 07:16:32;;;;;;;14.70;13.60;;;26.90;77.80;;;;;;4995235;28;20518;-57
2022/07/25 07:18:58;;;;;;;16.40;15.20;;;27.10;77.40;;;;;;4995018;28;20226;-54
2022/07/25 07:21:23;;;;;;;15.10;14.00;;;27.20;76.90;;;;;;5006606;28;20494;-54
2022/07/25 07:23:49;;;;;;;15.90;14.60;;;27.20;76.60;;;;;;4993002;28;20200;-53
2022/07/25 07:26:15;;;;;;;17.47;15.87;;;27.10;76.80;;;;;;4993459;28;20210;-55
2022/07/25 07:28:41;;;;;;;16.00;14.70;;;27.20;76.50;;;;;;4994780;28;20742;-56
2022/07/25 07:31:07;;;;;;;17.77;16.33;;;27.40;76.80;;;;;;4995611;28;20289;-42
2022/07/25 07:33:33;;;;;;;15.77;14.57;;;27.60;75.20;;;;;;4993377;28;20798;-43
2022/07/25 07:35:59;;;;;;;16.73;15.40;;;27.80;75.10;;;;;;4990824;28;20575;-41
2022/07/25 07:38:25;;;;;;;17.23;15.93;;;28.20;74.20;;;;;;4992308;28;20850;-42
2022/07/25 07:40:52;;;;;;;17.30;16.10;;;28.50;73.10;;;;;;4990321;28;20422;-39
2022/07/25 07:43:18;;;;;;;17.50;16.20;;;28.60;72.60;;;;;;5007529;28;20451;-41
2022/07/25 07:45:44;;;;;;;16.03;14.73;;;28.90;72.40;;;;;;4992368;28;20412;-41
2022/07/25 07:48:10;;;;;;;17.27;15.87;;;28.90;71.40;;;;;;4993054;28;20451;-40
2022/07/25 07:50:36;;;;;;;16.23;15.10;;;29.10;71.00;;;;;;4994442;28;20821;-41
2022/07/25 07:53:02;;;;;;;16.17;14.97;;;29.00;71.20;;;;;;4995123;28;20203;-44
2022/07/25 07:55:43;;;;;;;18.10;16.70;;;29.10;69.60;;;;;;4993334;28;20414;-41
2022/07/25 07:58:17;;;;;;;15.80;14.70;;;29.00;70.00;;;;;;4994708;28;20493;-42
2022/07/25 08:00:50;;;;;;;16.00;14.80;;;29.20;68.50;;;;;;5009571;28;20416;-43
2022/07/25 08:03:18;;;;;;;16.97;15.77;;;29.60;68.80;;;;;;5018449;28;20477;-41
2022/07/25 08:05:44;;;;;;;16.43;14.97;;;29.60;67.10;;;;;;5040615;28;20425;-42
2022/07/25 08:08:11;;;;;;;16.73;15.43;;;29.80;66.50;;;;;;5039452;28;20429;-40
2022/07/25 08:10:40;;;;;;;18.17;16.67;;;30.30;65.50;;;;;;5041031;28;20519;-40
2022/07/25 08:13:16;;;;;;;16.90;15.60;;;30.40;62.80;;;;;;5040659;28;20508;-40
2022/07/25 08:15:44;;;;;;;17.70;16.27;;;30.40;62.80;;;;;;5041277;28;20426;-42
2022/07/25 08:18:09;;;;;;;16.57;15.27;;;30.60;63.00;;;;;;5040668;28;20405;-40
2022/07/25 08:20:35;;;;;;;16.77;15.67;;;30.50;63.20;;;;;;5040481;28;20499;-43
2022/07/25 08:23:02;;;;;;;17.63;16.03;;;30.80;62.80;;;;;;5039806;28;20601;-40
2022/07/25 08:25:28;;;;;;;16.67;15.37;;;31.00;61.70;;;;;;5038778;28;20403;-42
2022/07/25 08:27:54;;;;;;;16.90;15.60;;;31.00;59.90;;;;;;5040114;28;20856;-42
2022/07/25 08:30:19;;;;;;;16.80;15.50;;;31.10;60.10;;;;;;5037991;28;20406;-41
2022/07/25 08:32:54;;;;;;;16.10;14.90;;;30.70;59.00;;;;;;5037647;28;20238;-41
2022/07/25 08:35:21;;;;;;;17.03;15.83;;;31.00;58.80;;;;;;5038789;28;20297;-41
2022/07/25 08:37:47;;;;;;;17.00;15.80;;;31.10;58.70;;;;;;5039604;28;20432;-44
2022/07/25 08:40:16;;;;;;;16.23;15.03;;;31.40;58.10;;;;;;5034583;28;20465;-43
2022/07/25 08:42:42;;;;;;;16.43;15.23;;;31.50;58.00;;;;;;5032993;28;20385;-40
2022/07/25 08:45:11;;;;;;;16.03;14.80;;;31.50;57.10;;;;;;5034316;28;20777;-42
2022/07/25 08:47:38;;;;;;;15.70;14.50;;;31.60;55.80;;;;;;5036789;28;20585;-41
2022/07/25 08:50:07;;;;;;;15.80;14.60;;;31.60;55.60;;;;;;5036887;28;20562;-41
2022/07/25 08:52:36;;;;;;;16.37;15.00;;;31.70;55.50;;;;;;5035603;28;20391;-41
2022/07/25 08:55:03;;;;;;;16.13;14.73;;;31.90;55.30;;;;;;5034708;28;20687;-40
2022/07/25 08:57:29;;;;;;;15.63;14.53;;;32.20;53.50;;;;;;5034141;28;20434;-42
2022/07/25 08:59:58;;;;;;;16.27;15.03;;;32.40;53.00;;;;;;5034308;28;20924;-42
2022/07/25 09:02:27;;;;;;;14.93;13.83;;;32.50;52.20;;;;;;5036118;28;20183;-40
2022/07/25 09:04:54;;;;;;;16.07;14.67;;;32.40;52.30;;;;;;5034901;28;20776;-43
2022/07/25 09:07:39;;;;;;;15.60;14.40;;;32.30;52.70;;;;;;5032726;28;20735;-44
2022/07/25 09:10:18;;;;;;;15.83;14.53;;;32.70;51.90;;;;;;4997098;28;20430;-41
2022/07/25 09:12:55;;;;;;;16.00;14.80;;;32.90;51.50;;;;;;4996731;28;20420;-42
2022/07/25 09:15:28;;;;;;;16.43;15.10;;;33.30;51.20;;;;;;4996259;28;20457;-41
2022/07/25 09:17:54;;;;;;;15.63;14.43;;;33.30;50.80;;;;;;4998131;28;20403;-42
2022/07/25 09:20:21;;;;;;;15.53;13.93;;;33.50;51.10;;;;;;5000140;28;20407;-41
2022/07/25 09:22:47;;;;;;;16.10;14.80;;;33.90;50.90;;;;;;4999678;28;20392;-42
2022/07/25 09:25:28;;;;;;;16.73;15.60;;;33.80;50.20;;;;;;5014319;28;20425;-41
2022/07/25 09:27:55;;;;;;;16.93;15.57;;;33.60;50.40;;;;;;4997970;28;20746;-41
2022/07/25 09:30:21;;;;;;;16.47;15.20;;;33.20;49.90;;;;;;4998789;28;20448;-42
2022/07/25 09:32:47;;;;;;;15.57;14.37;;;32.90;50.40;;;;;;4998661;28;20447;-43
2022/07/25 09:35:13;;;;;;;15.63;14.17;;;33.10;50.10;;;;;;4997702;28;20443;-42
2022/07/25 09:37:38;;;;;;;15.67;14.47;;;33.20;50.20;;;;;;4999112;28;20195;-43
2022/07/25 09:40:18;;;;;;;15.30;14.10;;;33.70;49.50;;;;;;4996290;28;20431;-40
2022/07/25 09:42:49;;;;;;;15.97;14.77;;;34.10;48.80;;;;;;4997244;28;20238;-41
2022/07/25 09:45:15;;;;;;;16.17;14.97;;;34.80;48.80;;;;;;5012186;28;20971;-41
2022/07/25 09:47:53;;;;;;;14.80;13.80;;;35.20;47.60;;;;;;4997626;28;20544;-42
2022/07/25 09:50:21;;;;;;;15.40;14.17;;;35.10;47.50;;;;;;4997831;28;20332;-42
2022/07/25 09:52:47;;;;;;;13.47;12.47;;;35.60;46.70;;;;;;4996369;28;20464;-42
2022/07/25 09:55:15;;;;;;;13.33;12.30;;;35.20;44.50;;;;;;5014527;28;20422;-42
2022/07/25 09:57:43;;;;;;;13.77;12.80;;;35.10;44.70;;;;;;4998216;28;20743;-41
2022/07/25 10:00:10;;;;;;;13.70;12.70;;;35.00;44.50;;;;;;4995393;28;20766;-42
2022/07/25 10:02:51;;;;;;;13.93;12.93;;;35.10;45.00;;;;;;4994478;28;20784;-40
2022/07/25 10:05:34;;;;;;;13.23;12.30;;;35.00;44.50;;;;;;4993905;28;20774;-41
2022/07/25 10:08:05;;;;;;;13.73;12.77;;;34.70;44.30;;;;;;4996372;28;20444;-42
2022/07/25 10:10:36;;;;;;;12.27;11.20;;;34.70;44.10;;;;;;4997697;28;20726;-41
2022/07/25 10:13:09;;;;;;;11.60;10.70;;;35.30;43.70;;;;;;4998516;28;20397;-42
2022/07/25 10:15:40;;;;;;;10.13;9.43;;;35.70;42.30;;;;;;4998414;28;20421;-41
2022/07/25 10:18:07;;;;;;;9.00;8.20;;;36.10;41.30;;;;;;4997438;28;20466;-41
2022/07/25 10:20:34;;;;;;;7.37;6.87;;;36.40;38.50;;;;;;5004655;28;20537;-43
2022/07/25 10:23:01;;;;;;;7.17;6.57;;;36.30;37.60;;;;;;5031830;28;20737;-44
2022/07/25 10:25:27;;;;;;;7.33;6.83;;;36.80;36.00;;;;;;4994571;28;20437;-41
2022/07/25 10:28:02;;;;;;;6.77;6.23;;;37.00;35.70;;;;;;5015668;28;20532;-42
2022/07/25 10:30:38;;;;;;;7.50;6.90;;;37.50;35.30;;;;;;5017554;28;20395;-44
2022/07/25 10:33:12;;;;;;;8.10;7.47;;;38.10;34.80;;;;;;5015018;28;20792;-42
2022/07/25 10:35:38;;;;;;;7.90;7.30;;;38.30;33.80;;;;;;5016099;28;20427;-44
2022/07/25 10:38:04;;;;;;;7.10;6.60;;;37.50;34.10;;;;;;5016767;28;20412;-42
2022/07/25 10:40:42;;;;;;;8.23;7.60;;;37.40;34.50;;;;;;5014189;28;20441;-41
2022/07/25 10:43:13;;;;;;;7.83;7.23;;;37.00;34.70;;;;;;5014081;28;20482;-44
2022/07/25 10:45:49;;;;;;;8.10;6.60;;;37.30;35.10;;;;;;5014132;28;20424;-42
2022/07/25 10:48:24;;;;;;;8.20;7.50;;;37.80;33.80;;;;;;5015065;28;20468;-43
2022/07/25 10:50:57;;;;;;;8.23;7.63;;;38.10;33.70;;;;;;5021120;28;20493;-43
2022/07/25 10:53:47;;;;;;;7.90;7.40;;;38.50;33.20;;;;;;5015837;28;20441;-45
2022/07/25 10:56:15;;;;;;;7.90;7.30;;;38.30;32.90;;;;;;5010284;28;20534;-44
2022/07/25 10:58:51;;;;;;;8.00;7.40;;;38.20;33.30;;;;;;5014252;28;20427;-45
2022/07/25 11:01:23;;;;;;;7.23;6.73;;;37.80;33.00;;;;;;5015747;28;20418;-42
2022/07/25 11:03:50;;;;;;;7.83;7.30;;;37.60;33.30;;;;;;5016936;28;20452;-44
2022/07/25 11:06:28;;;;;;;7.43;6.83;;;37.30;33.50;;;;;;5016204;28;20525;-42
2022/07/25 11:08:56;;;;;;;7.00;6.50;;;37.00;33.10;;;;;;5015633;28;20419;-41
2022/07/25 11:11:35;;;;;;;7.70;7.20;;;36.80;33.60;;;;;;5015485;28;20676;-43
2022/07/25 11:14:01;;;;;;;7.37;6.87;;;36.40;33.10;;;;;;5015533;28;20455;-45
2022/07/25 11:16:27;;;;;;;7.13;6.63;;;37.20;33.50;;;;;;5014836;28;20443;-44
2022/07/25 11:18:53;;;;;;;8.40;7.80;;;37.50;33.20;;;;;;5015554;28;20263;-42
2022/07/25 11:21:19;;;;;;;8.60;7.90;;;37.00;33.30;;;;;;5013920;28;20402;-42
2022/07/25 11:23:50;;;;;;;7.50;7.00;;;36.80;33.40;;;;;;5015545;28;20422;-43
2022/07/25 11:26:16;;;;;;;7.80;7.10;;;36.90;33.10;;;;;;5016400;28;20193;-42
2022/07/25 11:28:44;;;;;;;7.60;7.10;;;37.60;33.40;;;;;;5017443;28;20643;-42
2022/07/25 11:31:10;;;;;;;7.33;6.83;;;37.90;32.40;;;;;;5017223;28;20255;-44
2022/07/25 11:33:37;;;;;;;7.70;7.10;;;38.20;32.50;;;;;;5015870;28;20474;-44
2022/07/25 11:36:03;;;;;;;9.17;8.57;;;37.80;32.20;;;;;;5013533;28;21030;-42
2022/07/25 11:38:28;;;;;;;8.60;8.00;;;37.70;33.10;;;;;;5015869;28;20417;-44
2022/07/25 11:40:54;;;;;;;8.70;8.10;;;37.70;33.00;;;;;;5016451;28;20532;-43
2022/07/25 11:43:22;;;;;;;8.47;7.97;;;37.60;32.70;;;;;;5014374;28;20204;-43
2022/07/25 11:46:05;;;;;;;7.30;6.80;;;37.70;32.50;;;;;;5013853;28;20228;-43
2022/07/25 11:48:37;;;;;;;8.40;7.67;;;38.20;32.10;;;;;;5013552;28;20433;-41
2022/07/25 11:51:16;;;;;;;8.47;7.97;;;37.70;32.60;;;;;;5012903;28;20421;-42
2022/07/25 11:53:46;;;;;;;7.70;7.20;;;37.50;33.20;;;;;;5014233;28;20388;-42
2022/07/25 11:56:13;;;;;;;8.33;7.77;;;37.90;33.00;;;;;;5014450;28;20742;-42
2022/07/25 11:58:39;;;;;;;7.97;7.47;;;38.20;32.40;;;;;;5015194;28;20733;-41
2022/07/25 12:01:14;;;;;;;9.27;8.60;;;37.50;33.00;;;;;;5017034;28;20491;-41
2022/07/25 12:03:41;;;;;;;8.57;7.97;;;37.10;33.30;;;;;;5015897;28;20593;-41
2022/07/25 12:06:08;;;;;;;8.27;7.77;;;36.60;33.30;;;;;;5015042;28;20765;-42
2022/07/25 12:08:39;;;;;;;9.43;8.80;;;36.30;33.40;;;;;;5013961;28;20413;-41
2022/07/25 12:11:19;;;;;;;9.37;8.67;;;36.30;34.00;;;;;;5013946;28;20407;-43
2022/07/25 12:13:45;;;;;;;8.00;7.40;;;36.70;33.60;;;;;;5013307;28;20528;-42
2022/07/25 12:16:11;;;;;;;9.63;8.73;;;37.40;33.50;;;;;;5012901;28;20779;-41
2022/07/25 12:18:37;;;;;;;8.57;7.97;;;37.50;33.20;;;;;;5013038;28;20581;-44
2022/07/25 12:21:03;;;;;;;8.60;7.83;;;37.80;33.20;;;;;;5014629;28;20284;-43
2022/07/25 12:23:29;;;;;;;7.73;7.13;;;38.00;32.30;;;;;;5015018;28;20416;-43
2022/07/25 12:25:54;;;;;;;7.40;6.80;;;38.10;32.40;;;;;;5014982;28;20187;-42
2022/07/25 12:28:20;;;;;;;7.23;6.73;;;38.30;31.80;;;;;;5016486;28;20206;-42
2022/07/25 12:30:47;;;;;;;8.20;7.50;;;38.20;30.90;;;;;;5030646;28;20181;-43
2022/07/25 12:33:12;;;;;;;7.20;6.60;;;38.20;31.00;;;;;;5014982;28;20268;-43
2022/07/25 12:35:42;;;;;;;8.33;7.67;;;37.70;31.50;;;;;;5015326;28;20798;-41